sensor_id;sensor_type;location;lat;lon;timestamp;temperature;humidity
37002;DHT22;22913;51.910;8.374;2023-04-23T00:01:37;13.50;99.90
37002;DHT22;22913;51.910;8.374;2023-04-23T00:04:25;13.50;99.90
37002;DHT22;22913;51.910;8.374;2023-04-23T00:07:12;13.50;99.90
37002;DHT22;22913;51.910;8.374;2023-04-23T00:09:59;13.50;99.90
37002;DHT22;22913;51.910;8.374;2023-04-23T00:12:47;13.50;99.90
37002;DHT22;22913;51.910;8.374;2023-04-23T00:15:33;13.40;99.90
37002;DHT22;22913;51.910;8.374;2023-04-23T00:18:19;13.20;99.90
37002;DHT22;22913;51.910;8.374;2023-04-23T00:21:05;13.20;99.90
37002;DHT22;22913;51.910;8.374;2023-04-23T00:23:51;13.20;99.90
37002;DHT22;22913;51.910;8.374;2023-04-23T00:26:38;13.10;99.90
37002;DHT22;22913;51.910;8.374;2023-04-23T00:29:24;13.10;99.90
37002;DHT22;22913;51.910;8.374;2023-04-23T00:32:09;13.10;99.90
37002;DHT22;22913;51.910;8.374;2023-04-23T00:34:55;13.10;99.90
37002;DHT22;22913;51.910;8.374;2023-04-23T00:37:41;13.10;99.90
37002;DHT22;22913;51.910;8.374;2023-04-23T00:40:26;13.00;99.90
37002;DHT22;22913;51.910;8.374;2023-04-23T00:43:13;13.00;99.90
37002;DHT22;22913;51.910;8.374;2023-04-23T00:46:00;13.00;99.90
37002;DHT22;22913;51.910;8.374;2023-04-23T00:48:47;13.00;99.90
37002;DHT22;22913;51.910;8.374;2023-04-23T00:51:33;12.90;99.90
37002;DHT22;22913;51.910;8.374;2023-04-23T00:54:19;13.00;99.90
37002;DHT22;22913;51.910;8.374;2023-04-23T00:57:05;12.90;99.90
37002;DHT22;22913;51.910;8.374;2023-04-23T00:59:53;12.90;99.90
37002;DHT22;22913;51.910;8.374;2023-04-23T01:02:40;12.80;99.90
37002;DHT22;22913;51.910;8.374;2023-04-23T01:05:27;12.80;99.90
37002;DHT22;22913;51.910;8.374;2023-04-23T01:08:15;12.80;99.90
37002;DHT22;22913;51.910;8.374;2023-04-23T01:11:02;12.80;99.90
37002;DHT22;22913;51.910;8.374;2023-04-23T01:13:47;12.80;99.90
37002;DHT22;22913;51.910;8.374;2023-04-23T01:16:35;12.60;99.90
37002;DHT22;22913;51.910;8.374;2023-04-23T01:19:21;12.70;99.90
37002;DHT22;22913;51.910;8.374;2023-04-23T01:22:10;12.70;99.90
37002;DHT22;22913;51.910;8.374;2023-04-23T01:24:56;12.70;99.90
37002;DHT22;22913;51.910;8.374;2023-04-23T01:27:42;12.60;99.90
37002;DHT22;22913;51.910;8.374;2023-04-23T01:30:28;12.70;99.90
37002;DHT22;22913;51.910;8.374;2023-04-23T01:33:14;12.60;99.90
37002;DHT22;22913;51.910;8.374;2023-04-23T01:36:01;12.60;99.90
37002;DHT22;22913;51.910;8.374;2023-04-23T01:38:48;12.60;99.90
37002;DHT22;22913;51.910;8.374;2023-04-23T01:41:35;12.50;99.90
37002;DHT22;22913;51.910;8.374;2023-04-23T01:44:21;12.50;99.90
37002;DHT22;22913;51.910;8.374;2023-04-23T01:47:07;12.50;99.90
37002;DHT22;22913;51.910;8.374;2023-04-23T01:49:52;12.50;99.90
37002;DHT22;22913;51.910;8.374;2023-04-23T01:52:38;12.40;99.90
37002;DHT22;22913;51.910;8.374;2023-04-23T01:55:26;12.40;99.90
37002;DHT22;22913;51.910;8.374;2023-04-23T01:58:11;12.30;99.90
37002;DHT22;22913;51.910;8.374;2023-04-23T02:00:57;12.30;99.90
37002;DHT22;22913;51.910;8.374;2023-04-23T02:03:43;12.20;99.90
37002;DHT22;22913;51.910;8.374;2023-04-23T02:06:29;12.20;99.90
37002;DHT22;22913;51.910;8.374;2023-04-23T02:09:15;12.10;99.90
37002;DHT22;22913;51.910;8.374;2023-04-23T02:12:03;12.10;99.90
37002;DHT22;22913;51.910;8.374;2023-04-23T02:14:48;12.10;99.90
37002;DHT22;22913;51.910;8.374;2023-04-23T02:17:34;12.00;99.90
37002;DHT22;22913;51.910;8.374;2023-04-23T02:20:20;12.00;99.90
37002;DHT22;22913;51.910;8.374;2023-04-23T02:23:07;12.10;99.90
37002;DHT22;22913;51.910;8.374;2023-04-23T02:25:52;12.10;99.90
37002;DHT22;22913;51.910;8.374;2023-04-23T02:28:40;12.00;99.90
37002;DHT22;22913;51.910;8.374;2023-04-23T02:31:25;12.00;99.90
37002;DHT22;22913;51.910;8.374;2023-04-23T02:34:11;12.00;99.90
37002;DHT22;22913;51.910;8.374;2023-04-23T02:36:57;11.90;99.90
37002;DHT22;22913;51.910;8.374;2023-04-23T02:39:43;11.90;99.90
37002;DHT22;22913;51.910;8.374;2023-04-23T02:42:32;11.80;99.90
37002;DHT22;22913;51.910;8.374;2023-04-23T02:45:21;11.80;99.90
37002;DHT22;22913;51.910;8.374;2023-04-23T02:48:07;11.80;99.90
37002;DHT22;22913;51.910;8.374;2023-04-23T02:50:52;11.80;99.90
37002;DHT22;22913;51.910;8.374;2023-04-23T02:53:38;11.70;99.90
37002;DHT22;22913;51.910;8.374;2023-04-23T02:56:24;11.70;99.90
37002;DHT22;22913;51.910;8.374;2023-04-23T02:59:10;11.60;99.90
37002;DHT22;22913;51.910;8.374;2023-04-23T03:01:57;11.50;99.90
37002;DHT22;22913;51.910;8.374;2023-04-23T03:04:43;11.50;99.90
37002;DHT22;22913;51.910;8.374;2023-04-23T03:07:28;11.40;99.90
37002;DHT22;22913;51.910;8.374;2023-04-23T03:10:14;11.40;99.90
37002;DHT22;22913;51.910;8.374;2023-04-23T03:13:00;11.40;99.90
37002;DHT22;22913;51.910;8.374;2023-04-23T03:15:46;11.40;99.90
37002;DHT22;22913;51.910;8.374;2023-04-23T03:18:33;11.40;99.90
37002;DHT22;22913;51.910;8.374;2023-04-23T03:21:19;11.40;99.90
37002;DHT22;22913;51.910;8.374;2023-04-23T03:24:11;11.40;99.90
37002;DHT22;22913;51.910;8.374;2023-04-23T03:27:00;11.40;99.90
37002;DHT22;22913;51.910;8.374;2023-04-23T03:29:46;11.30;99.90
37002;DHT22;22913;51.910;8.374;2023-04-23T03:32:34;11.30;99.90
37002;DHT22;22913;51.910;8.374;2023-04-23T03:35:22;11.30;99.90
37002;DHT22;22913;51.910;8.374;2023-04-23T03:38:07;11.30;99.90
37002;DHT22;22913;51.910;8.374;2023-04-23T03:40:53;11.30;99.90
37002;DHT22;22913;51.910;8.374;2023-04-23T03:43:39;11.30;99.90
37002;DHT22;22913;51.910;8.374;2023-04-23T03:46:25;11.30;99.90
37002;DHT22;22913;51.910;8.374;2023-04-23T03:49:11;11.30;99.90
37002;DHT22;22913;51.910;8.374;2023-04-23T03:51:58;11.30;99.90
37002;DHT22;22913;51.910;8.374;2023-04-23T03:54:43;11.30;99.90
37002;DHT22;22913;51.910;8.374;2023-04-23T03:57:29;11.30;99.90
37002;DHT22;22913;51.910;8.374;2023-04-23T04:00:15;11.30;99.90
37002;DHT22;22913;51.910;8.374;2023-04-23T04:03:01;11.30;99.90
37002;DHT22;22913;51.910;8.374;2023-04-23T04:05:47;11.30;99.90
37002;DHT22;22913;51.910;8.374;2023-04-23T04:08:34;11.20;99.90
37002;DHT22;22913;51.910;8.374;2023-04-23T04:11:20;11.20;99.90
37002;DHT22;22913;51.910;8.374;2023-04-23T04:14:05;11.20;99.90
37002;DHT22;22913;51.910;8.374;2023-04-23T04:16:51;11.20;99.90
37002;DHT22;22913;51.910;8.374;2023-04-23T04:19:37;11.20;99.90
37002;DHT22;22913;51.910;8.374;2023-04-23T04:22:23;11.20;99.90
37002;DHT22;22913;51.910;8.374;2023-04-23T04:25:10;11.10;99.90
37002;DHT22;22913;51.910;8.374;2023-04-23T04:27:56;11.20;99.90
37002;DHT22;22913;51.910;8.374;2023-04-23T04:30:42;11.20;99.90
37002;DHT22;22913;51.910;8.374;2023-04-23T04:36:54;11.20;99.90
37002;DHT22;22913;51.910;8.374;2023-04-23T04:39:39;11.30;99.90
37002;DHT22;22913;51.910;8.374;2023-04-23T04:42:27;11.10;99.90
37002;DHT22;22913;51.910;8.374;2023-04-23T04:45:12;11.10;99.90
37002;DHT22;22913;51.910;8.374;2023-04-23T04:47:58;11.10;99.90
37002;DHT22;22913;51.910;8.374;2023-04-23T04:50:44;11.10;99.90
37002;DHT22;22913;51.910;8.374;2023-04-23T04:53:29;11.10;99.90
37002;DHT22;22913;51.910;8.374;2023-04-23T04:56:15;11.00;99.90
37002;DHT22;22913;51.910;8.374;2023-04-23T04:59:02;11.00;99.90
37002;DHT22;22913;51.910;8.374;2023-04-23T05:01:48;11.00;99.90
37002;DHT22;22913;51.910;8.374;2023-04-23T05:04:34;11.00;99.90
37002;DHT22;22913;51.910;8.374;2023-04-23T05:07:19;11.10;99.90
37002;DHT22;22913;51.910;8.374;2023-04-23T05:10:06;11.10;99.90
37002;DHT22;22913;51.910;8.374;2023-04-23T05:12:52;11.10;99.90
37002;DHT22;22913;51.910;8.374;2023-04-23T05:15:39;11.10;99.90
37002;DHT22;22913;51.910;8.374;2023-04-23T05:18:24;11.00;99.90
37002;DHT22;22913;51.910;8.374;2023-04-23T05:21:10;11.00;99.90
37002;DHT22;22913;51.910;8.374;2023-04-23T05:23:56;11.10;99.90
37002;DHT22;22913;51.910;8.374;2023-04-23T05:26:41;11.00;99.90
37002;DHT22;22913;51.910;8.374;2023-04-23T05:29:27;11.00;99.90
37002;DHT22;22913;51.910;8.374;2023-04-23T05:32:14;11.00;99.90
37002;DHT22;22913;51.910;8.374;2023-04-23T05:35:00;11.10;99.90
37002;DHT22;22913;51.910;8.374;2023-04-23T05:37:45;11.10;99.90
37002;DHT22;22913;51.910;8.374;2023-04-23T05:40:31;11.10;99.90
37002;DHT22;22913;51.910;8.374;2023-04-23T05:43:17;11.20;99.90
37002;DHT22;22913;51.910;8.374;2023-04-23T05:46:02;11.20;99.90
37002;DHT22;22913;51.910;8.374;2023-04-23T05:48:51;11.10;99.90
37002;DHT22;22913;51.910;8.374;2023-04-23T05:51:37;11.20;99.90
37002;DHT22;22913;51.910;8.374;2023-04-23T05:54:23;11.20;99.90
37002;DHT22;22913;51.910;8.374;2023-04-23T05:57:10;11.20;99.90
37002;DHT22;22913;51.910;8.374;2023-04-23T05:59:56;11.30;99.90
37002;DHT22;22913;51.910;8.374;2023-04-23T06:02:41;11.40;99.90
37002;DHT22;22913;51.910;8.374;2023-04-23T06:05:28;11.40;99.90
37002;DHT22;22913;51.910;8.374;2023-04-23T06:08:14;11.50;99.90
37002;DHT22;22913;51.910;8.374;2023-04-23T06:11:00;11.40;99.90
37002;DHT22;22913;51.910;8.374;2023-04-23T06:13:46;11.40;99.90
37002;DHT22;22913;51.910;8.374;2023-04-23T06:16:31;11.50;99.90
37002;DHT22;22913;51.910;8.374;2023-04-23T06:19:17;11.50;99.90
37002;DHT22;22913;51.910;8.374;2023-04-23T06:22:05;11.40;99.90
37002;DHT22;22913;51.910;8.374;2023-04-23T06:24:51;11.50;99.90
37002;DHT22;22913;51.910;8.374;2023-04-23T06:27:36;11.50;99.90
37002;DHT22;22913;51.910;8.374;2023-04-23T06:30:22;11.60;99.90
37002;DHT22;22913;51.910;8.374;2023-04-23T06:33:08;11.60;99.90
37002;DHT22;22913;51.910;8.374;2023-04-23T06:35:55;11.70;99.90
37002;DHT22;22913;51.910;8.374;2023-04-23T06:38:42;11.80;99.90
37002;DHT22;22913;51.910;8.374;2023-04-23T06:41:29;11.80;99.90
37002;DHT22;22913;51.910;8.374;2023-04-23T06:44:14;11.90;99.90
37002;DHT22;22913;51.910;8.374;2023-04-23T06:47:00;12.00;99.90
37002;DHT22;22913;51.910;8.374;2023-04-23T06:49:46;12.00;99.90
37002;DHT22;22913;51.910;8.374;2023-04-23T06:52:32;12.00;99.90
37002;DHT22;22913;51.910;8.374;2023-04-23T06:55:19;12.20;99.90
37002;DHT22;22913;51.910;8.374;2023-04-23T06:58:04;12.30;99.90
37002;DHT22;22913;51.910;8.374;2023-04-23T07:00:51;12.30;99.90
37002;DHT22;22913;51.910;8.374;2023-04-23T07:03:36;12.40;99.90
37002;DHT22;22913;51.910;8.374;2023-04-23T07:06:22;12.50;99.90
37002;DHT22;22913;51.910;8.374;2023-04-23T07:09:08;12.60;99.90
37002;DHT22;22913;51.910;8.374;2023-04-23T07:11:55;12.60;99.90
37002;DHT22;22913;51.910;8.374;2023-04-23T07:14:40;12.70;99.90
37002;DHT22;22913;51.910;8.374;2023-04-23T07:17:26;12.80;99.90
37002;DHT22;22913;51.910;8.374;2023-04-23T07:20:11;12.80;99.90
37002;DHT22;22913;51.910;8.374;2023-04-23T07:22:57;12.90;99.90
37002;DHT22;22913;51.910;8.374;2023-04-23T07:25:43;12.90;99.90
37002;DHT22;22913;51.910;8.374;2023-04-23T07:28:30;13.00;99.90
37002;DHT22;22913;51.910;8.374;2023-04-23T07:31:16;13.10;99.90
37002;DHT22;22913;51.910;8.374;2023-04-23T07:34:02;13.20;99.90
37002;DHT22;22913;51.910;8.374;2023-04-23T07:36:48;13.20;99.90
37002;DHT22;22913;51.910;8.374;2023-04-23T07:39:35;13.20;99.90
37002;DHT22;22913;51.910;8.374;2023-04-23T07:42:20;13.40;99.90
37002;DHT22;22913;51.910;8.374;2023-04-23T07:45:09;13.40;99.90
37002;DHT22;22913;51.910;8.374;2023-04-23T07:47:54;13.50;99.90
37002;DHT22;22913;51.910;8.374;2023-04-23T07:50:40;13.60;99.90
37002;DHT22;22913;51.910;8.374;2023-04-23T07:53:27;13.60;99.90
37002;DHT22;22913;51.910;8.374;2023-04-23T07:56:12;13.70;99.90
37002;DHT22;22913;51.910;8.374;2023-04-23T07:58:58;13.80;99.90
37002;DHT22;22913;51.910;8.374;2023-04-23T08:01:45;13.90;99.90
37002;DHT22;22913;51.910;8.374;2023-04-23T08:04:30;14.00;99.90
37002;DHT22;22913;51.910;8.374;2023-04-23T08:07:16;14.10;99.90
37002;DHT22;22913;51.910;8.374;2023-04-23T08:10:02;14.20;99.90
37002;DHT22;22913;51.910;8.374;2023-04-23T08:12:49;14.20;99.90
37002;DHT22;22913;51.910;8.374;2023-04-23T08:15:34;14.20;99.90
37002;DHT22;22913;51.910;8.374;2023-04-23T08:18:22;14.30;99.90
37002;DHT22;22913;51.910;8.374;2023-04-23T08:21:07;14.40;99.90
37002;DHT22;22913;51.910;8.374;2023-04-23T08:23:52;14.40;99.90
37002;DHT22;22913;51.910;8.374;2023-04-23T08:26:38;14.50;99.90
37002;DHT22;22913;51.910;8.374;2023-04-23T08:29:24;14.70;99.90
37002;DHT22;22913;51.910;8.374;2023-04-23T08:32:09;14.70;99.90
37002;DHT22;22913;51.910;8.374;2023-04-23T08:34:57;14.90;99.90
37002;DHT22;22913;51.910;8.374;2023-04-23T08:37:42;15.10;99.90
37002;DHT22;22913;51.910;8.374;2023-04-23T08:40:30;15.20;99.90
37002;DHT22;22913;51.910;8.374;2023-04-23T08:43:18;15.30;99.90
37002;DHT22;22913;51.910;8.374;2023-04-23T08:46:10;15.40;99.90
37002;DHT22;22913;51.910;8.374;2023-04-23T08:48:59;15.40;99.90
37002;DHT22;22913;51.910;8.374;2023-04-23T08:51:48;15.60;99.90
37002;DHT22;22913;51.910;8.374;2023-04-23T08:54:36;15.80;99.90
37002;DHT22;22913;51.910;8.374;2023-04-23T08:57:26;15.90;99.90
37002;DHT22;22913;51.910;8.374;2023-04-23T09:00:13;16.00;99.90
37002;DHT22;22913;51.910;8.374;2023-04-23T09:02:59;16.10;99.90
37002;DHT22;22913;51.910;8.374;2023-04-23T09:05:46;16.20;99.90
37002;DHT22;22913;51.910;8.374;2023-04-23T09:08:32;16.40;99.90
37002;DHT22;22913;51.910;8.374;2023-04-23T09:11:19;16.50;99.90
37002;DHT22;22913;51.910;8.374;2023-04-23T09:14:08;16.50;99.90
37002;DHT22;22913;51.910;8.374;2023-04-23T09:16:54;16.60;99.90
37002;DHT22;22913;51.910;8.374;2023-04-23T09:19:40;16.50;99.90
37002;DHT22;22913;51.910;8.374;2023-04-23T09:22:40;16.60;99.90
37002;DHT22;22913;51.910;8.374;2023-04-23T09:25:28;16.70;99.90
37002;DHT22;22913;51.910;8.374;2023-04-23T09:28:13;16.80;99.90
37002;DHT22;22913;51.910;8.374;2023-04-23T09:30:58;16.90;99.90
37002;DHT22;22913;51.910;8.374;2023-04-23T09:33:49;17.00;99.90
37002;DHT22;22913;51.910;8.374;2023-04-23T09:36:36;17.20;99.90
37002;DHT22;22913;51.910;8.374;2023-04-23T09:39:22;17.20;99.90
37002;DHT22;22913;51.910;8.374;2023-04-23T09:42:09;17.30;99.90
37002;DHT22;22913;51.910;8.374;2023-04-23T09:44:57;17.40;99.90
37002;DHT22;22913;51.910;8.374;2023-04-23T09:47:48;17.50;99.90
37002;DHT22;22913;51.910;8.374;2023-04-23T09:50:35;17.50;99.90
37002;DHT22;22913;51.910;8.374;2023-04-23T09:53:22;17.40;99.90
37002;DHT22;22913;51.910;8.374;2023-04-23T09:56:07;17.40;99.90
37002;DHT22;22913;51.910;8.374;2023-04-23T09:58:54;17.30;99.90
37002;DHT22;22913;51.910;8.374;2023-04-23T10:01:44;17.30;99.90
37002;DHT22;22913;51.910;8.374;2023-04-23T10:04:29;17.30;99.90
37002;DHT22;22913;51.910;8.374;2023-04-23T10:07:16;17.30;99.90
37002;DHT22;22913;51.910;8.374;2023-04-23T10:10:02;17.40;99.90
37002;DHT22;22913;51.910;8.374;2023-04-23T10:12:51;17.50;99.90
37002;DHT22;22913;51.910;8.374;2023-04-23T10:15:38;17.60;99.90
37002;DHT22;22913;51.910;8.374;2023-04-23T10:18:24;17.70;99.90
37002;DHT22;22913;51.910;8.374;2023-04-23T10:21:11;17.70;99.90
37002;DHT22;22913;51.910;8.374;2023-04-23T10:23:57;17.90;99.90
37002;DHT22;22913;51.910;8.374;2023-04-23T10:26:45;18.10;99.90
37002;DHT22;22913;51.910;8.374;2023-04-23T10:29:33;18.40;99.90
37002;DHT22;22913;51.910;8.374;2023-04-23T10:32:21;18.40;99.90
37002;DHT22;22913;51.910;8.374;2023-04-23T10:35:08;18.50;99.90
37002;DHT22;22913;51.910;8.374;2023-04-23T10:37:54;18.40;99.90
37002;DHT22;22913;51.910;8.374;2023-04-23T10:40:44;18.50;99.90
37002;DHT22;22913;51.910;8.374;2023-04-23T10:43:31;18.40;99.90
37002;DHT22;22913;51.910;8.374;2023-04-23T10:46:32;18.40;99.90
37002;DHT22;22913;51.910;8.374;2023-04-23T10:49:21;18.60;99.90
37002;DHT22;22913;51.910;8.374;2023-04-23T10:52:08;18.60;99.90
37002;DHT22;22913;51.910;8.374;2023-04-23T10:54:57;18.50;99.90
37002;DHT22;22913;51.910;8.374;2023-04-23T10:57:54;18.40;99.90
37002;DHT22;22913;51.910;8.374;2023-04-23T11:00:44;18.30;99.90
37002;DHT22;22913;51.910;8.374;2023-04-23T11:03:32;18.40;99.90
37002;DHT22;22913;51.910;8.374;2023-04-23T11:06:50;18.40;99.90
37002;DHT22;22913;51.910;8.374;2023-04-23T11:09:39;18.50;99.90
37002;DHT22;22913;51.910;8.374;2023-04-23T11:12:32;18.60;99.90
37002;DHT22;22913;51.910;8.374;2023-04-23T11:15:18;18.60;99.90
37002;DHT22;22913;51.910;8.374;2023-04-23T11:18:04;18.80;99.90
37002;DHT22;22913;51.910;8.374;2023-04-23T11:20:49;19.10;99.90
37002;DHT22;22913;51.910;8.374;2023-04-23T11:23:37;19.40;99.90
37002;DHT22;22913;51.910;8.374;2023-04-23T11:26:27;19.60;99.90
37002;DHT22;22913;51.910;8.374;2023-04-23T11:29:15;19.80;99.90
37002;DHT22;22913;51.910;8.374;2023-04-23T11:32:00;19.90;99.90
37002;DHT22;22913;51.910;8.374;2023-04-23T11:34:47;19.90;99.90
37002;DHT22;22913;51.910;8.374;2023-04-23T11:37:38;19.60;99.90
37002;DHT22;22913;51.910;8.374;2023-04-23T11:40:25;19.60;99.90
37002;DHT22;22913;51.910;8.374;2023-04-23T11:43:17;19.50;99.90
37002;DHT22;22913;51.910;8.374;2023-04-23T11:46:04;19.60;99.90
37002;DHT22;22913;51.910;8.374;2023-04-23T11:48:49;19.60;99.90
37002;DHT22;22913;51.910;8.374;2023-04-23T11:51:40;19.70;99.90
37002;DHT22;22913;51.910;8.374;2023-04-23T11:54:27;19.70;99.90
37002;DHT22;22913;51.910;8.374;2023-04-23T11:57:14;19.70;99.90
37002;DHT22;22913;51.910;8.374;2023-04-23T12:00:00;19.50;99.90
37002;DHT22;22913;51.910;8.374;2023-04-23T12:02:51;19.40;99.90
37002;DHT22;22913;51.910;8.374;2023-04-23T12:05:39;19.30;99.90
37002;DHT22;22913;51.910;8.374;2023-04-23T12:08:31;19.40;99.90
37002;DHT22;22913;51.910;8.374;2023-04-23T12:11:17;19.40;99.90
37002;DHT22;22913;51.910;8.374;2023-04-23T12:14:05;19.50;99.90
37002;DHT22;22913;51.910;8.374;2023-04-23T12:16:51;19.40;99.90
37002;DHT22;22913;51.910;8.374;2023-04-23T12:19:37;19.50;99.90
37002;DHT22;22913;51.910;8.374;2023-04-23T12:22:25;19.70;99.90
37002;DHT22;22913;51.910;8.374;2023-04-23T12:25:11;19.80;99.90
37002;DHT22;22913;51.910;8.374;2023-04-23T12:27:58;19.80;99.90
37002;DHT22;22913;51.910;8.374;2023-04-23T12:30:45;19.80;99.90
37002;DHT22;22913;51.910;8.374;2023-04-23T12:33:31;20.00;99.90
37002;DHT22;22913;51.910;8.374;2023-04-23T12:36:16;20.00;99.90
37002;DHT22;22913;51.910;8.374;2023-04-23T12:39:33;20.10;99.90
37002;DHT22;22913;51.910;8.374;2023-04-23T12:42:19;20.30;99.90
37002;DHT22;22913;51.910;8.374;2023-04-23T12:45:06;20.60;99.90
37002;DHT22;22913;51.910;8.374;2023-04-23T12:47:53;21.00;99.90
37002;DHT22;22913;51.910;8.374;2023-04-23T12:50:39;21.20;99.90
37002;DHT22;22913;51.910;8.374;2023-04-23T12:53:24;21.20;99.90
37002;DHT22;22913;51.910;8.374;2023-04-23T12:56:10;21.00;99.90
37002;DHT22;22913;51.910;8.374;2023-04-23T12:58:55;20.90;99.90
37002;DHT22;22913;51.910;8.374;2023-04-23T13:01:45;20.90;99.90
37002;DHT22;22913;51.910;8.374;2023-04-23T13:04:33;20.70;99.90
37002;DHT22;22913;51.910;8.374;2023-04-23T13:07:19;20.70;99.90
37002;DHT22;22913;51.910;8.374;2023-04-23T13:10:05;20.60;99.90
37002;DHT22;22913;51.910;8.374;2023-04-23T13:12:51;20.40;99.90
37002;DHT22;22913;51.910;8.374;2023-04-23T13:15:37;20.20;99.90
37002;DHT22;22913;51.910;8.374;2023-04-23T13:18:22;20.10;99.90
37002;DHT22;22913;51.910;8.374;2023-04-23T13:21:10;20.20;99.90
37002;DHT22;22913;51.910;8.374;2023-04-23T13:23:56;20.50;99.90
37002;DHT22;22913;51.910;8.374;2023-04-23T13:26:41;20.80;99.90
37002;DHT22;22913;51.910;8.374;2023-04-23T13:29:27;21.00;99.90
37002;DHT22;22913;51.910;8.374;2023-04-23T13:32:13;21.00;99.90
37002;DHT22;22913;51.910;8.374;2023-04-23T13:34:59;21.00;99.90
37002;DHT22;22913;51.910;8.374;2023-04-23T13:37:48;21.00;99.90
37002;DHT22;22913;51.910;8.374;2023-04-23T13:40:34;20.90;99.90
37002;DHT22;22913;51.910;8.374;2023-04-23T13:43:20;20.90;99.90
37002;DHT22;22913;51.910;8.374;2023-04-23T13:46:05;20.80;99.90
37002;DHT22;22913;51.910;8.374;2023-04-23T13:48:52;20.90;99.90
37002;DHT22;22913;51.910;8.374;2023-04-23T13:51:37;20.80;99.90
37002;DHT22;22913;51.910;8.374;2023-04-23T13:54:24;20.80;99.90
37002;DHT22;22913;51.910;8.374;2023-04-23T13:57:11;20.70;99.90
37002;DHT22;22913;51.910;8.374;2023-04-23T13:59:56;20.50;99.90
37002;DHT22;22913;51.910;8.374;2023-04-23T14:02:43;20.50;99.90
37002;DHT22;22913;51.910;8.374;2023-04-23T14:05:30;20.10;99.90
37002;DHT22;22913;51.910;8.374;2023-04-23T14:08:15;19.20;99.90
37002;DHT22;22913;51.910;8.374;2023-04-23T14:11:02;17.90;99.90
37002;DHT22;22913;51.910;8.374;2023-04-23T14:13:48;16.80;99.90
37002;DHT22;22913;51.910;8.374;2023-04-23T14:16:34;16.00;99.90
37002;DHT22;22913;51.910;8.374;2023-04-23T14:19:19;15.60;99.90
37002;DHT22;22913;51.910;8.374;2023-04-23T14:22:05;15.40;99.90
37002;DHT22;22913;51.910;8.374;2023-04-23T14:24:55;15.80;99.90
37002;DHT22;22913;51.910;8.374;2023-04-23T14:27:49;16.50;99.90
37002;DHT22;22913;51.910;8.374;2023-04-23T14:30:35;17.30;99.90
37002;DHT22;22913;51.910;8.374;2023-04-23T14:33:20;18.20;99.90
37002;DHT22;22913;51.910;8.374;2023-04-23T14:36:06;19.20;99.90
37002;DHT22;22913;51.910;8.374;2023-04-23T14:38:52;20.30;99.90
37002;DHT22;22913;51.910;8.374;2023-04-23T14:41:38;21.20;99.90
37002;DHT22;22913;51.910;8.374;2023-04-23T14:44:25;21.60;99.90
37002;DHT22;22913;51.910;8.374;2023-04-23T14:47:11;22.40;99.90
37002;DHT22;22913;51.910;8.374;2023-04-23T14:49:57;22.90;99.90
37002;DHT22;22913;51.910;8.374;2023-04-23T14:52:46;23.30;99.90
37002;DHT22;22913;51.910;8.374;2023-04-23T14:55:32;23.60;99.90
37002;DHT22;22913;51.910;8.374;2023-04-23T14:58:18;24.00;99.90
37002;DHT22;22913;51.910;8.374;2023-04-23T15:01:05;24.20;99.90
37002;DHT22;22913;51.910;8.374;2023-04-23T15:03:51;24.30;99.90
37002;DHT22;22913;51.910;8.374;2023-04-23T15:06:37;24.40;99.90
37002;DHT22;22913;51.910;8.374;2023-04-23T15:09:23;24.20;99.90
37002;DHT22;22913;51.910;8.374;2023-04-23T15:12:40;24.00;99.90
37002;DHT22;22913;51.910;8.374;2023-04-23T15:15:35;23.40;99.90
37002;DHT22;22913;51.910;8.374;2023-04-23T15:18:22;22.90;99.90
37002;DHT22;22913;51.910;8.374;2023-04-23T15:21:08;22.40;99.90
37002;DHT22;22913;51.910;8.374;2023-04-23T15:23:53;22.10;99.90
37002;DHT22;22913;51.910;8.374;2023-04-23T15:26:39;21.80;99.90
37002;DHT22;22913;51.910;8.374;2023-04-23T15:29:25;21.50;99.90
37002;DHT22;22913;51.910;8.374;2023-04-23T15:32:10;21.20;99.90
37002;DHT22;22913;51.910;8.374;2023-04-23T15:34:57;20.90;99.90
37002;DHT22;22913;51.910;8.374;2023-04-23T15:37:43;20.70;99.90
37002;DHT22;22913;51.910;8.374;2023-04-23T15:40:29;20.40;99.90
37002;DHT22;22913;51.910;8.374;2023-04-23T15:43:15;20.20;99.90
37002;DHT22;22913;51.910;8.374;2023-04-23T15:46:01;19.80;99.90
37002;DHT22;22913;51.910;8.374;2023-04-23T15:48:46;19.60;99.90
37002;DHT22;22913;51.910;8.374;2023-04-23T15:51:34;19.50;99.90
37002;DHT22;22913;51.910;8.374;2023-04-23T15:54:19;19.40;99.90
37002;DHT22;22913;51.910;8.374;2023-04-23T15:57:05;19.30;99.90
37002;DHT22;22913;51.910;8.374;2023-04-23T15:59:51;19.20;99.90
37002;DHT22;22913;51.910;8.374;2023-04-23T16:02:38;19.20;99.90
37002;DHT22;22913;51.910;8.374;2023-04-23T16:05:24;19.10;99.90
37002;DHT22;22913;51.910;8.374;2023-04-23T16:08:11;19.00;99.90
37002;DHT22;22913;51.910;8.374;2023-04-23T16:10:57;18.90;99.90
37002;DHT22;22913;51.910;8.374;2023-04-23T16:13:43;18.90;99.90
37002;DHT22;22913;51.910;8.374;2023-04-23T16:16:29;18.90;99.90
37002;DHT22;22913;51.910;8.374;2023-04-23T16:19:15;18.80;99.90
37002;DHT22;22913;51.910;8.374;2023-04-23T16:22:00;18.80;99.90
37002;DHT22;22913;51.910;8.374;2023-04-23T16:24:47;18.70;99.90
37002;DHT22;22913;51.910;8.374;2023-04-23T16:27:33;18.80;99.90
37002;DHT22;22913;51.910;8.374;2023-04-23T16:30:19;18.70;99.90
37002;DHT22;22913;51.910;8.374;2023-04-23T16:33:05;18.60;99.90
37002;DHT22;22913;51.910;8.374;2023-04-23T16:35:51;18.60;99.90
37002;DHT22;22913;51.910;8.374;2023-04-23T16:38:37;18.50;99.90
37002;DHT22;22913;51.910;8.374;2023-04-23T16:41:24;18.50;99.90
37002;DHT22;22913;51.910;8.374;2023-04-23T16:44:09;18.60;99.90
37002;DHT22;22913;51.910;8.374;2023-04-23T16:46:55;18.50;99.90
37002;DHT22;22913;51.910;8.374;2023-04-23T16:49:41;18.50;99.90
37002;DHT22;22913;51.910;8.374;2023-04-23T16:52:26;18.50;99.90
37002;DHT22;22913;51.910;8.374;2023-04-23T16:55:12;18.60;99.90
37002;DHT22;22913;51.910;8.374;2023-04-23T16:57:59;18.50;99.90
37002;DHT22;22913;51.910;8.374;2023-04-23T17:00:45;18.50;99.90
37002;DHT22;22913;51.910;8.374;2023-04-23T17:03:30;18.40;99.90
37002;DHT22;22913;51.910;8.374;2023-04-23T17:06:25;18.40;99.90
37002;DHT22;22913;51.910;8.374;2023-04-23T17:09:10;18.50;99.90
37002;DHT22;22913;51.910;8.374;2023-04-23T17:11:56;18.40;99.90
37002;DHT22;22913;51.910;8.374;2023-04-23T17:14:44;18.30;99.90
37002;DHT22;22913;51.910;8.374;2023-04-23T17:17:29;18.20;99.90
37002;DHT22;22913;51.910;8.374;2023-04-23T17:20:15;17.90;99.90
37002;DHT22;22913;51.910;8.374;2023-04-23T17:23:01;17.60;99.90
37002;DHT22;22913;51.910;8.374;2023-04-23T17:25:46;17.50;99.90
37002;DHT22;22913;51.910;8.374;2023-04-23T17:28:32;17.30;99.90
37002;DHT22;22913;51.910;8.374;2023-04-23T17:31:19;17.20;99.90
37002;DHT22;22913;51.910;8.374;2023-04-23T17:34:05;17.20;99.90
37002;DHT22;22913;51.910;8.374;2023-04-23T17:36:50;17.20;99.90